Tanja Jacob — A8YR7 — position and weather

sailwx.info

Track history (hours):
 
Tides and Currents Weather Stations Pressure Air Temp Water Temp Dewpoint Dewpoint Depression Visibility Wind Speed Wind Dir Waves Ship Positions

Tanja Jacob

Last reported at 2017-Jun-05 17:47 UTC. Time now 2017-Jun-29 05:20 UTC.
Position N 29°56' W 090°22'.
Warning: this ship's position is 23 days out of date.

Length 227 m; draft 8 m.

Type: Ship. MMSI: 636092217.

Date/timePositionNaut miles runAvg speedWind from/ knotsBaromVisibWave heightAir tempDewpointWater temp
2017-Jun-05 17:47N 29°56' W 090°22'1711.6
2017-Jun-05 16:17N 30°03' W 090°41'  
2017-May-29 19:38N 25°27' W 079°31'210.3
2017-May-29 19:28N 25°29' W 079°31'510.3
2017-May-29 19:00N 25°33' W 079°30'510.4
2017-May-29 18:30N 25°38' W 079°28'510.5
2017-May-29 18:00N 25°43' W 079°26'510.7
2017-May-29 17:30N 25°49' W 079°24'510.6
2017-May-29 17:00N 25°54' W 079°23'910.8
2017-May-29 16:08N 26°03' W 079°20'310.7
2017-May-29 15:50N 26°06' W 079°19'411.0
2017-May-29 15:30N 26°09' W 079°18'711.3
2017-May-29 14:55N 26°16' W 079°16'  
Track history (hours):
 
Tides and Currents Weather Stations Pressure Air Temp Water Temp Dewpoint Dewpoint Depression Visibility Wind Speed Wind Dir Waves Ship Positions

Tanja Jacob

Last reported at 2017-Jun-05 17:47 UTC. Time now 2017-Jun-29 05:20 UTC.
Position N 29°56' W 090°22'.
Warning: this ship's position is 23 days out of date.

Length 227 m; draft 8 m.

Type: Ship. MMSI: 636092217.

Date/timePositionNaut miles runAvg speedWind from/ knotsBaromVisibWave heightAir tempDewpointWater temp
2017-Jun-05 17:47N 29°56' W 090°22'1711.6
2017-Jun-05 16:17N 30°03' W 090°41'  
2017-May-29 19:38N 25°27' W 079°31'210.3
2017-May-29 19:28N 25°29' W 079°31'510.3
2017-May-29 19:00N 25°33' W 079°30'510.4
2017-May-29 18:30N 25°38' W 079°28'510.5
2017-May-29 18:00N 25°43' W 079°26'510.7
2017-May-29 17:30N 25°49' W 079°24'510.6
2017-May-29 17:00N 25°54' W 079°23'910.8
2017-May-29 16:08N 26°03' W 079°20'310.7
2017-May-29 15:50N 26°06' W 079°19'411.0
2017-May-29 15:30N 26°09' W 079°18'711.3
2017-May-29 14:55N 26°16' W 079°16'  

Dump ship's entire track history